sensor_id;sensor_type;location;lat;lon;timestamp;temperature;humidity
48328;DHT22;34136;51.022;7.082;2023-02-26T00:00:58;-0.60;1.00
48328;DHT22;34136;51.022;7.082;2023-02-26T00:03:51;-0.60;1.00
48328;DHT22;34136;51.022;7.082;2023-02-26T00:06:41;-0.70;1.00
48328;DHT22;34136;51.022;7.082;2023-02-26T00:09:27;-0.60;1.00
48328;DHT22;34136;51.022;7.082;2023-02-26T00:12:14;-0.60;1.00
48328;DHT22;34136;51.022;7.082;2023-02-26T00:15:00;-0.60;1.00
48328;DHT22;34136;51.022;7.082;2023-02-26T00:20:39;-0.60;1.00
48328;DHT22;34136;51.022;7.082;2023-02-26T00:23:25;-0.60;1.00
48328;DHT22;34136;51.022;7.082;2023-02-26T00:26:11;-0.60;1.00
48328;DHT22;34136;51.022;7.082;2023-02-26T00:28:58;-0.70;1.00
48328;DHT22;34136;51.022;7.082;2023-02-26T00:31:45;-0.70;1.00
48328;DHT22;34136;51.022;7.082;2023-02-26T00:34:34;-0.60;1.00
48328;DHT22;34136;51.022;7.082;2023-02-26T00:40:22;-0.50;1.00
48328;DHT22;34136;51.022;7.082;2023-02-26T00:43:22;-0.50;1.00
48328;DHT22;34136;51.022;7.082;2023-02-26T00:52:05;-0.40;1.00
48328;DHT22;34136;51.022;7.082;2023-02-26T00:54:56;-0.40;1.00
48328;DHT22;34136;51.022;7.082;2023-02-26T00:57:42;-0.30;1.00
48328;DHT22;34136;51.022;7.082;2023-02-26T01:00:28;-0.30;1.00
48328;DHT22;34136;51.022;7.082;2023-02-26T01:03:15;-0.30;1.00
48328;DHT22;34136;51.022;7.082;2023-02-26T01:06:02;-0.30;1.00
48328;DHT22;34136;51.022;7.082;2023-02-26T01:11:43;-0.30;1.00
48328;DHT22;34136;51.022;7.082;2023-02-26T01:14:31;-0.30;1.00
48328;DHT22;34136;51.022;7.082;2023-02-26T01:17:40;-0.30;1.00
48328;DHT22;34136;51.022;7.082;2023-02-26T01:20:36;-0.30;1.00
48328;DHT22;34136;51.022;7.082;2023-02-26T01:23:32;-0.40;1.00
48328;DHT22;34136;51.022;7.082;2023-02-26T01:26:23;-0.40;1.00
48328;DHT22;34136;51.022;7.082;2023-02-26T01:29:11;-0.40;1.00
48328;DHT22;34136;51.022;7.082;2023-02-26T01:32:21;-0.40;1.00
48328;DHT22;34136;51.022;7.082;2023-02-26T01:35:19;-0.40;1.00
48328;DHT22;34136;51.022;7.082;2023-02-26T01:38:51;-0.50;1.00
48328;DHT22;34136;51.022;7.082;2023-02-26T01:41:54;-0.60;1.00
48328;DHT22;34136;51.022;7.082;2023-02-26T01:48:03;-0.60;1.00
48328;DHT22;34136;51.022;7.082;2023-02-26T01:50:50;-0.60;1.00
48328;DHT22;34136;51.022;7.082;2023-02-26T01:53:36;-0.60;1.00
48328;DHT22;34136;51.022;7.082;2023-02-26T01:56:22;-0.70;1.00
48328;DHT22;34136;51.022;7.082;2023-02-26T01:59:10;-0.70;1.00
48328;DHT22;34136;51.022;7.082;2023-02-26T02:01:59;-0.80;1.00
48328;DHT22;34136;51.022;7.082;2023-02-26T02:04:48;-0.80;2.20
48328;DHT22;34136;51.022;7.082;2023-02-26T02:07:34;-0.80;3.80
48328;DHT22;34136;51.022;7.082;2023-02-26T02:10:21;-0.80;3.80
48328;DHT22;34136;51.022;7.082;2023-02-26T02:31:39;-0.80;1.00
48328;DHT22;34136;51.022;7.082;2023-02-26T02:37:37;-0.90;1.00
48328;DHT22;34136;51.022;7.082;2023-02-26T02:40:31;-0.80;1.20
48328;DHT22;34136;51.022;7.082;2023-02-26T02:43:28;-0.90;1.70
48328;DHT22;34136;51.022;7.082;2023-02-26T02:46:22;-0.90;2.50
48328;DHT22;34136;51.022;7.082;2023-02-26T02:52:14;-0.90;2.50
48328;DHT22;34136;51.022;7.082;2023-02-26T02:55:08;-0.90;2.00
48328;DHT22;34136;51.022;7.082;2023-02-26T02:58:04;-1.00;2.00
48328;DHT22;34136;51.022;7.082;2023-02-26T03:00:55;-1.00;2.50
48328;DHT22;34136;51.022;7.082;2023-02-26T03:03:52;-1.10;3.60
48328;DHT22;34136;51.022;7.082;2023-02-26T03:06:40;-1.10;5.00
48328;DHT22;34136;51.022;7.082;2023-02-26T03:09:27;-1.20;5.90
48328;DHT22;34136;51.022;7.082;2023-02-26T03:12:13;-1.20;6.30
48328;DHT22;34136;51.022;7.082;2023-02-26T03:15:03;-1.10;4.90
48328;DHT22;34136;51.022;7.082;2023-02-26T03:18:05;-1.20;3.40
48328;DHT22;34136;51.022;7.082;2023-02-26T03:24:17;-1.20;2.30
48328;DHT22;34136;51.022;7.082;2023-02-26T03:33:19;-1.20;1.00
48328;DHT22;34136;51.022;7.082;2023-02-26T03:36:13;-1.20;1.00
48328;DHT22;34136;51.022;7.082;2023-02-26T03:42:32;-1.20;1.00
48328;DHT22;34136;51.022;7.082;2023-02-26T03:45:32;-1.30;2.10
48328;DHT22;34136;51.022;7.082;2023-02-26T03:48:22;-1.30;2.40
48328;DHT22;34136;51.022;7.082;2023-02-26T03:51:11;-1.30;1.60
48328;DHT22;34136;51.022;7.082;2023-02-26T03:54:31;-1.20;1.00
48328;DHT22;34136;51.022;7.082;2023-02-26T03:57:37;-1.20;1.00
48328;DHT22;34136;51.022;7.082;2023-02-26T04:00:41;-1.20;1.00
48328;DHT22;34136;51.022;7.082;2023-02-26T04:06:21;-1.10;1.00
48328;DHT22;34136;51.022;7.082;2023-02-26T04:09:09;-1.20;1.00
48328;DHT22;34136;51.022;7.082;2023-02-26T04:11:59;-1.20;1.00
48328;DHT22;34136;51.022;7.082;2023-02-26T04:14:46;-1.20;1.00
48328;DHT22;34136;51.022;7.082;2023-02-26T04:17:32;-1.20;1.00
48328;DHT22;34136;51.022;7.082;2023-02-26T04:20:20;-1.30;1.00
48328;DHT22;34136;51.022;7.082;2023-02-26T04:23:06;-1.30;1.00
48328;DHT22;34136;51.022;7.082;2023-02-26T04:25:53;-1.30;1.00
48328;DHT22;34136;51.022;7.082;2023-02-26T04:28:40;-1.30;1.00
48328;DHT22;34136;51.022;7.082;2023-02-26T04:31:26;-1.30;1.00
48328;DHT22;34136;51.022;7.082;2023-02-26T04:34:13;-1.30;1.00
48328;DHT22;34136;51.022;7.082;2023-02-26T04:36:59;-1.40;1.00
48328;DHT22;34136;51.022;7.082;2023-02-26T04:39:45;-1.40;1.00
48328;DHT22;34136;51.022;7.082;2023-02-26T04:42:32;-1.40;1.00
48328;DHT22;34136;51.022;7.082;2023-02-26T04:45:18;-1.50;1.00
48328;DHT22;34136;51.022;7.082;2023-02-26T04:48:04;-1.50;1.00
48328;DHT22;34136;51.022;7.082;2023-02-26T04:50:50;-1.60;1.00
48328;DHT22;34136;51.022;7.082;2023-02-26T04:53:38;-1.60;1.00
48328;DHT22;34136;51.022;7.082;2023-02-26T04:56:25;-1.60;1.00
48328;DHT22;34136;51.022;7.082;2023-02-26T04:59:12;-1.60;1.00
48328;DHT22;34136;51.022;7.082;2023-02-26T05:01:59;-1.60;1.00
48328;DHT22;34136;51.022;7.082;2023-02-26T05:04:45;-1.60;1.00
48328;DHT22;34136;51.022;7.082;2023-02-26T05:07:32;-1.70;1.00
48328;DHT22;34136;51.022;7.082;2023-02-26T05:10:18;-1.70;1.00
48328;DHT22;34136;51.022;7.082;2023-02-26T05:13:05;-1.70;1.00
48328;DHT22;34136;51.022;7.082;2023-02-26T05:15:53;-1.70;1.00
48328;DHT22;34136;51.022;7.082;2023-02-26T05:18:39;-1.70;1.00
48328;DHT22;34136;51.022;7.082;2023-02-26T05:21:25;-1.70;1.00
48328;DHT22;34136;51.022;7.082;2023-02-26T05:24:12;-1.70;1.00
48328;DHT22;34136;51.022;7.082;2023-02-26T05:26:59;-1.70;1.00
48328;DHT22;34136;51.022;7.082;2023-02-26T05:29:46;-1.80;1.90
48328;DHT22;34136;51.022;7.082;2023-02-26T05:32:33;-1.80;3.70
48328;DHT22;34136;51.022;7.082;2023-02-26T05:35:19;-1.80;3.90
48328;DHT22;34136;51.022;7.082;2023-02-26T05:38:06;-1.70;3.00
48328;DHT22;34136;51.022;7.082;2023-02-26T05:40:56;-1.80;2.40
48328;DHT22;34136;51.022;7.082;2023-02-26T05:43:42;-1.80;2.90
48328;DHT22;34136;51.022;7.082;2023-02-26T05:46:28;-1.80;4.40
48328;DHT22;34136;51.022;7.082;2023-02-26T05:49:15;-1.80;5.60
48328;DHT22;34136;51.022;7.082;2023-02-26T05:52:01;-1.80;6.10
48328;DHT22;34136;51.022;7.082;2023-02-26T05:54:47;-1.80;6.50
48328;DHT22;34136;51.022;7.082;2023-02-26T05:57:33;-1.80;6.40
48328;DHT22;34136;51.022;7.082;2023-02-26T06:00:23;-1.80;7.50
48328;DHT22;34136;51.022;7.082;2023-02-26T06:03:09;-1.70;7.00
48328;DHT22;34136;51.022;7.082;2023-02-26T06:05:57;-1.80;6.20
48328;DHT22;34136;51.022;7.082;2023-02-26T06:08:44;-1.80;6.20
48328;DHT22;34136;51.022;7.082;2023-02-26T06:11:31;-1.80;6.20
48328;DHT22;34136;51.022;7.082;2023-02-26T06:14:17;-1.80;5.80
48328;DHT22;34136;51.022;7.082;2023-02-26T06:17:04;-1.80;5.40
48328;DHT22;34136;51.022;7.082;2023-02-26T06:19:50;-1.80;5.20
48328;DHT22;34136;51.022;7.082;2023-02-26T06:22:36;-1.80;4.30
48328;DHT22;34136;51.022;7.082;2023-02-26T06:25:22;-1.90;4.00
48328;DHT22;34136;51.022;7.082;2023-02-26T06:28:08;-1.90;3.10
48328;DHT22;34136;51.022;7.082;2023-02-26T06:30:55;-1.90;3.30
48328;DHT22;34136;51.022;7.082;2023-02-26T06:33:41;-1.90;4.70
48328;DHT22;34136;51.022;7.082;2023-02-26T06:36:27;-2.00;6.40
48328;DHT22;34136;51.022;7.082;2023-02-26T06:39:13;-1.90;7.50
48328;DHT22;34136;51.022;7.082;2023-02-26T06:42:00;-1.90;6.40
48328;DHT22;34136;51.022;7.082;2023-02-26T06:44:46;-1.90;6.10
48328;DHT22;34136;51.022;7.082;2023-02-26T06:47:32;-1.90;4.50
48328;DHT22;34136;51.022;7.082;2023-02-26T06:50:19;-1.90;4.20
48328;DHT22;34136;51.022;7.082;2023-02-26T06:53:05;-1.90;4.00
48328;DHT22;34136;51.022;7.082;2023-02-26T06:55:52;-1.90;3.50
48328;DHT22;34136;51.022;7.082;2023-02-26T06:58:38;-1.80;2.70
48328;DHT22;34136;51.022;7.082;2023-02-26T07:01:24;-1.80;1.90
48328;DHT22;34136;51.022;7.082;2023-02-26T07:04:09;-1.70;1.00
48328;DHT22;34136;51.022;7.082;2023-02-26T07:06:55;-1.60;1.00
48328;DHT22;34136;51.022;7.082;2023-02-26T07:09:41;-1.50;1.00
48328;DHT22;34136;51.022;7.082;2023-02-26T07:12:28;-1.40;1.00
48328;DHT22;34136;51.022;7.082;2023-02-26T07:15:14;-1.30;1.00
48328;DHT22;34136;51.022;7.082;2023-02-26T07:18:00;-1.20;1.00
48328;DHT22;34136;51.022;7.082;2023-02-26T07:20:48;-1.20;1.00
48328;DHT22;34136;51.022;7.082;2023-02-26T07:23:35;-1.10;1.00
48328;DHT22;34136;51.022;7.082;2023-02-26T07:26:21;-1.00;1.00
48328;DHT22;34136;51.022;7.082;2023-02-26T07:29:07;-1.00;1.00
48328;DHT22;34136;51.022;7.082;2023-02-26T07:31:53;-0.90;1.00
48328;DHT22;34136;51.022;7.082;2023-02-26T07:34:39;-0.80;1.00
48328;DHT22;34136;51.022;7.082;2023-02-26T07:37:26;-0.80;1.00
48328;DHT22;34136;51.022;7.082;2023-02-26T07:40:13;-0.70;1.00
48328;DHT22;34136;51.022;7.082;2023-02-26T07:42:59;-0.70;1.00
48328;DHT22;34136;51.022;7.082;2023-02-26T07:45:49;-0.60;1.00
48328;DHT22;34136;51.022;7.082;2023-02-26T07:48:35;-0.60;1.00
48328;DHT22;34136;51.022;7.082;2023-02-26T07:51:21;-0.50;1.00
48328;DHT22;34136;51.022;7.082;2023-02-26T07:54:08;-0.50;1.00
48328;DHT22;34136;51.022;7.082;2023-02-26T07:56:54;-0.40;1.00
48328;DHT22;34136;51.022;7.082;2023-02-26T07:59:40;-0.40;1.00
48328;DHT22;34136;51.022;7.082;2023-02-26T08:02:27;-0.30;1.00
48328;DHT22;34136;51.022;7.082;2023-02-26T08:05:16;-0.20;1.00
48328;DHT22;34136;51.022;7.082;2023-02-26T08:08:03;-0.10;1.00
48328;DHT22;34136;51.022;7.082;2023-02-26T08:10:49;-0.10;1.00
48328;DHT22;34136;51.022;7.082;2023-02-26T08:13:35;0.00;1.00
48328;DHT22;34136;51.022;7.082;2023-02-26T08:16:21;0.00;1.00
48328;DHT22;34136;51.022;7.082;2023-02-26T08:19:08;0.10;1.00
48328;DHT22;34136;51.022;7.082;2023-02-26T08:21:54;0.20;1.00
48328;DHT22;34136;51.022;7.082;2023-02-26T08:24:40;0.30;1.00
48328;DHT22;34136;51.022;7.082;2023-02-26T08:27:26;0.30;1.00
48328;DHT22;34136;51.022;7.082;2023-02-26T08:30:13;0.50;1.00
48328;DHT22;34136;51.022;7.082;2023-02-26T08:32:59;0.50;1.00
48328;DHT22;34136;51.022;7.082;2023-02-26T08:35:46;0.70;1.00
48328;DHT22;34136;51.022;7.082;2023-02-26T08:38:32;0.80;1.00
48328;DHT22;34136;51.022;7.082;2023-02-26T08:41:18;1.00;1.00
48328;DHT22;34136;51.022;7.082;2023-02-26T08:44:06;1.00;1.00
48328;DHT22;34136;51.022;7.082;2023-02-26T08:46:52;1.10;1.00
48328;DHT22;34136;51.022;7.082;2023-02-26T08:49:38;1.20;1.00
48328;DHT22;34136;51.022;7.082;2023-02-26T08:52:25;1.30;1.00
48328;DHT22;34136;51.022;7.082;2023-02-26T08:55:11;1.30;1.00
48328;DHT22;34136;51.022;7.082;2023-02-26T08:57:57;1.40;1.00
48328;DHT22;34136;51.022;7.082;2023-02-26T09:00:43;1.50;1.00
48328;DHT22;34136;51.022;7.082;2023-02-26T09:03:29;1.60;1.00
48328;DHT22;34136;51.022;7.082;2023-02-26T09:06:15;1.70;1.00
48328;DHT22;34136;51.022;7.082;2023-02-26T09:09:09;1.80;1.00
48328;DHT22;34136;51.022;7.082;2023-02-26T09:11:55;1.90;1.00
48328;DHT22;34136;51.022;7.082;2023-02-26T09:14:41;1.90;1.00
48328;DHT22;34136;51.022;7.082;2023-02-26T09:17:27;2.00;1.00
48328;DHT22;34136;51.022;7.082;2023-02-26T09:20:14;2.00;1.00
48328;DHT22;34136;51.022;7.082;2023-02-26T09:23:00;2.10;1.00
48328;DHT22;34136;51.022;7.082;2023-02-26T09:25:54;2.10;1.00
48328;DHT22;34136;51.022;7.082;2023-02-26T09:28:40;2.00;1.00
48328;DHT22;34136;51.022;7.082;2023-02-26T09:31:26;2.10;1.00
48328;DHT22;34136;51.022;7.082;2023-02-26T09:34:12;2.10;1.00
48328;DHT22;34136;51.022;7.082;2023-02-26T09:36:58;2.30;1.00
48328;DHT22;34136;51.022;7.082;2023-02-26T09:39:45;2.50;1.00
48328;DHT22;34136;51.022;7.082;2023-02-26T09:43:13;2.50;1.00
48328;DHT22;34136;51.022;7.082;2023-02-26T09:46:05;2.50;1.00
48328;DHT22;34136;51.022;7.082;2023-02-26T09:51:59;2.70;1.00
48328;DHT22;34136;51.022;7.082;2023-02-26T09:54:49;2.80;1.00
48328;DHT22;34136;51.022;7.082;2023-02-26T09:57:42;2.90;1.00
48328;DHT22;34136;51.022;7.082;2023-02-26T10:10:37;3.00;1.00
48328;DHT22;34136;51.022;7.082;2023-02-26T10:13:36;3.10;1.00
48328;DHT22;34136;51.022;7.082;2023-02-26T10:16:32;3.20;1.00
48328;DHT22;34136;51.022;7.082;2023-02-26T10:19:26;3.00;1.00
48328;DHT22;34136;51.022;7.082;2023-02-26T10:25:20;3.00;1.00
48328;DHT22;34136;51.022;7.082;2023-02-26T10:40:41;3.80;1.00
48328;DHT22;34136;51.022;7.082;2023-02-26T10:43:48;3.80;1.00
48328;DHT22;34136;51.022;7.082;2023-02-26T10:46:48;3.70;1.00
48328;DHT22;34136;51.022;7.082;2023-02-26T10:52:42;3.40;1.00
48328;DHT22;34136;51.022;7.082;2023-02-26T10:55:50;3.30;1.00
48328;DHT22;34136;51.022;7.082;2023-02-26T10:58:37;3.40;1.00
48328;DHT22;34136;51.022;7.082;2023-02-26T11:01:28;3.30;1.00
48328;DHT22;34136;51.022;7.082;2023-02-26T11:04:18;3.30;1.00
48328;DHT22;34136;51.022;7.082;2023-02-26T11:07:05;3.30;1.00
48328;DHT22;34136;51.022;7.082;2023-02-26T11:09:52;3.30;1.00
48328;DHT22;34136;51.022;7.082;2023-02-26T11:12:39;3.30;1.00
48328;DHT22;34136;51.022;7.082;2023-02-26T11:15:26;3.50;1.00
48328;DHT22;34136;51.022;7.082;2023-02-26T11:18:15;3.80;1.00
48328;DHT22;34136;51.022;7.082;2023-02-26T11:21:04;3.80;1.00
48328;DHT22;34136;51.022;7.082;2023-02-26T11:24:02;4.30;1.00
48328;DHT22;34136;51.022;7.082;2023-02-26T11:26:50;4.60;1.00
48328;DHT22;34136;51.022;7.082;2023-02-26T11:29:55;4.70;1.00
48328;DHT22;34136;51.022;7.082;2023-02-26T11:32:41;4.90;1.00
48328;DHT22;34136;51.022;7.082;2023-02-26T11:35:28;4.70;1.00
48328;DHT22;34136;51.022;7.082;2023-02-26T11:38:18;4.30;1.00
48328;DHT22;34136;51.022;7.082;2023-02-26T11:41:06;4.00;1.00
48328;DHT22;34136;51.022;7.082;2023-02-26T11:44:18;3.90;1.00
48328;DHT22;34136;51.022;7.082;2023-02-26T11:47:18;3.80;1.00
48328;DHT22;34136;51.022;7.082;2023-02-26T11:50:13;3.60;1.00
48328;DHT22;34136;51.022;7.082;2023-02-26T11:53:07;3.50;1.00
48328;DHT22;34136;51.022;7.082;2023-02-26T11:56:11;3.50;1.00
48328;DHT22;34136;51.022;7.082;2023-02-26T11:59:21;3.70;1.00
48328;DHT22;34136;51.022;7.082;2023-02-26T12:02:12;3.70;1.00
48328;DHT22;34136;51.022;7.082;2023-02-26T12:05:00;4.00;1.00
48328;DHT22;34136;51.022;7.082;2023-02-26T12:07:47;4.20;1.00
48328;DHT22;34136;51.022;7.082;2023-02-26T12:17:06;4.40;1.00
48328;DHT22;34136;51.022;7.082;2023-02-26T12:29:23;4.60;1.00
48328;DHT22;34136;51.022;7.082;2023-02-26T12:39:07;5.00;1.00
48328;DHT22;34136;51.022;7.082;2023-02-26T12:51:38;5.20;1.00
48328;DHT22;34136;51.022;7.082;2023-02-26T13:20:19;4.80;1.00
48328;DHT22;34136;51.022;7.082;2023-02-26T13:23:15;4.40;1.00
48328;DHT22;34136;51.022;7.082;2023-02-26T13:26:07;4.60;1.00
48328;DHT22;34136;51.022;7.082;2023-02-26T13:28:58;4.90;1.00
48328;DHT22;34136;51.022;7.082;2023-02-26T13:34:55;4.80;1.00
48328;DHT22;34136;51.022;7.082;2023-02-26T13:37:47;4.80;1.00
48328;DHT22;34136;51.022;7.082;2023-02-26T13:46:54;4.90;1.00
48328;DHT22;34136;51.022;7.082;2023-02-26T13:53:00;5.30;1.00
48328;DHT22;34136;51.022;7.082;2023-02-26T13:55:48;5.20;1.00
48328;DHT22;34136;51.022;7.082;2023-02-26T13:58:39;5.10;1.00
48328;DHT22;34136;51.022;7.082;2023-02-26T14:01:34;5.00;1.00
48328;DHT22;34136;51.022;7.082;2023-02-26T14:07:13;5.20;1.00
48328;DHT22;34136;51.022;7.082;2023-02-26T14:10:03;5.30;1.00
48328;DHT22;34136;51.022;7.082;2023-02-26T14:13:09;5.10;1.00
48328;DHT22;34136;51.022;7.082;2023-02-26T14:16:13;5.30;1.00
48328;DHT22;34136;51.022;7.082;2023-02-26T14:25:52;5.20;1.00
48328;DHT22;34136;51.022;7.082;2023-02-26T14:29:35;5.20;1.00
48328;DHT22;34136;51.022;7.082;2023-02-26T14:34:51;5.10;1.00
48328;DHT22;34136;51.022;7.082;2023-02-26T14:37:39;5.10;1.00
48328;DHT22;34136;51.022;7.082;2023-02-26T14:40:28;5.10;1.00
48328;DHT22;34136;51.022;7.082;2023-02-26T14:43:26;5.10;1.00
48328;DHT22;34136;51.022;7.082;2023-02-26T14:46:17;5.00;1.00
48328;DHT22;34136;51.022;7.082;2023-02-26T14:49:47;4.90;1.00
48328;DHT22;34136;51.022;7.082;2023-02-26T14:52:44;4.90;1.00
48328;DHT22;34136;51.022;7.082;2023-02-26T14:58:53;5.10;1.00
48328;DHT22;34136;51.022;7.082;2023-02-26T15:14:37;4.80;1.00
48328;DHT22;34136;51.022;7.082;2023-02-26T15:23:42;4.70;1.00
48328;DHT22;34136;51.022;7.082;2023-02-26T15:26:32;4.70;1.00
48328;DHT22;34136;51.022;7.082;2023-02-26T15:29:26;4.50;1.00
48328;DHT22;34136;51.022;7.082;2023-02-26T15:32:20;4.40;1.00
48328;DHT22;34136;51.022;7.082;2023-02-26T15:35:18;4.40;1.00
48328;DHT22;34136;51.022;7.082;2023-02-26T15:38:05;4.50;1.00
48328;DHT22;34136;51.022;7.082;2023-02-26T15:40:53;4.50;1.00
48328;DHT22;34136;51.022;7.082;2023-02-26T15:44:09;4.40;1.00
48328;DHT22;34136;51.022;7.082;2023-02-26T15:47:00;4.40;1.00
48328;DHT22;34136;51.022;7.082;2023-02-26T15:49:50;4.50;1.00
48328;DHT22;34136;51.022;7.082;2023-02-26T15:52:37;4.60;1.00
48328;DHT22;34136;51.022;7.082;2023-02-26T15:55:33;4.60;1.00
48328;DHT22;34136;51.022;7.082;2023-02-26T15:58:39;4.40;1.00
48328;DHT22;34136;51.022;7.082;2023-02-26T16:01:30;4.40;1.00
48328;DHT22;34136;51.022;7.082;2023-02-26T16:04:18;4.40;1.00
48328;DHT22;34136;51.022;7.082;2023-02-26T16:07:09;4.30;1.00
48328;DHT22;34136;51.022;7.082;2023-02-26T16:09:56;4.30;1.00
48328;DHT22;34136;51.022;7.082;2023-02-26T16:12:43;4.20;1.00
48328;DHT22;34136;51.022;7.082;2023-02-26T16:15:36;4.20;1.00
48328;DHT22;34136;51.022;7.082;2023-02-26T16:18:24;4.10;1.00
48328;DHT22;34136;51.022;7.082;2023-02-26T16:21:44;4.10;1.00
48328;DHT22;34136;51.022;7.082;2023-02-26T16:24:34;3.90;1.00
48328;DHT22;34136;51.022;7.082;2023-02-26T16:27:20;3.90;1.00
48328;DHT22;34136;51.022;7.082;2023-02-26T16:30:17;3.80;1.00
48328;DHT22;34136;51.022;7.082;2023-02-26T16:33:11;3.70;1.00
48328;DHT22;34136;51.022;7.082;2023-02-26T16:36:14;3.70;1.00
48328;DHT22;34136;51.022;7.082;2023-02-26T16:42:08;3.70;1.00
48328;DHT22;34136;51.022;7.082;2023-02-26T16:45:41;3.80;1.00
48328;DHT22;34136;51.022;7.082;2023-02-26T16:48:34;3.80;1.00
48328;DHT22;34136;51.022;7.082;2023-02-26T16:51:24;3.80;1.00
48328;DHT22;34136;51.022;7.082;2023-02-26T16:54:20;3.80;1.00
48328;DHT22;34136;51.022;7.082;2023-02-26T16:57:26;3.80;1.00
48328;DHT22;34136;51.022;7.082;2023-02-26T17:00:18;3.80;1.00
48328;DHT22;34136;51.022;7.082;2023-02-26T17:03:22;3.70;1.00
48328;DHT22;34136;51.022;7.082;2023-02-26T17:06:11;3.50;1.00
48328;DHT22;34136;51.022;7.082;2023-02-26T17:08:59;3.50;1.00
48328;DHT22;34136;51.022;7.082;2023-02-26T17:11:46;3.40;1.00
48328;DHT22;34136;51.022;7.082;2023-02-26T17:18:32;3.30;1.00
48328;DHT22;34136;51.022;7.082;2023-02-26T17:21:18;3.20;1.00
48328;DHT22;34136;51.022;7.082;2023-02-26T17:24:05;3.20;1.00
48328;DHT22;34136;51.022;7.082;2023-02-26T17:26:51;3.20;1.00
48328;DHT22;34136;51.022;7.082;2023-02-26T17:29:42;3.20;1.00
48328;DHT22;34136;51.022;7.082;2023-02-26T17:32:28;3.20;1.00
48328;DHT22;34136;51.022;7.082;2023-02-26T17:35:17;3.20;1.00
48328;DHT22;34136;51.022;7.082;2023-02-26T17:38:15;3.10;1.00
48328;DHT22;34136;51.022;7.082;2023-02-26T17:41:01;2.90;1.00
48328;DHT22;34136;51.022;7.082;2023-02-26T17:43:47;2.90;1.00
48328;DHT22;34136;51.022;7.082;2023-02-26T17:46:34;2.90;1.00
48328;DHT22;34136;51.022;7.082;2023-02-26T17:49:20;2.80;1.00
48328;DHT22;34136;51.022;7.082;2023-02-26T17:52:07;2.90;1.00
48328;DHT22;34136;51.022;7.082;2023-02-26T17:54:53;2.80;1.00
48328;DHT22;34136;51.022;7.082;2023-02-26T17:57:39;2.80;1.00
48328;DHT22;34136;51.022;7.082;2023-02-26T18:00:28;2.80;1.00
48328;DHT22;34136;51.022;7.082;2023-02-26T18:03:15;2.70;1.00
48328;DHT22;34136;51.022;7.082;2023-02-26T18:06:07;2.70;1.00
48328;DHT22;34136;51.022;7.082;2023-02-26T18:08:55;2.70;1.00
48328;DHT22;34136;51.022;7.082;2023-02-26T18:11:44;2.70;1.00
48328;DHT22;34136;51.022;7.082;2023-02-26T18:14:34;2.70;1.00
48328;DHT22;34136;51.022;7.082;2023-02-26T18:17:26;2.60;1.00
48328;DHT22;34136;51.022;7.082;2023-02-26T18:20:18;2.60;1.00
48328;DHT22;34136;51.022;7.082;2023-02-26T18:23:07;2.50;1.00
48328;DHT22;34136;51.022;7.082;2023-02-26T18:25:57;2.50;1.00
48328;DHT22;34136;51.022;7.082;2023-02-26T18:28:43;2.40;1.00
48328;DHT22;34136;51.022;7.082;2023-02-26T18:31:29;2.40;1.00
48328;DHT22;34136;51.022;7.082;2023-02-26T18:34:16;2.40;1.00
48328;DHT22;34136;51.022;7.082;2023-02-26T18:37:04;2.30;1.00
48328;DHT22;34136;51.022;7.082;2023-02-26T18:39:53;2.30;1.00
48328;DHT22;34136;51.022;7.082;2023-02-26T18:42:42;2.30;1.00
48328;DHT22;34136;51.022;7.082;2023-02-26T18:45:28;2.30;1.00
48328;DHT22;34136;51.022;7.082;2023-02-26T18:48:16;2.30;1.00
48328;DHT22;34136;51.022;7.082;2023-02-26T18:51:03;2.30;1.00
48328;DHT22;34136;51.022;7.082;2023-02-26T18:53:49;2.30;1.00
48328;DHT22;34136;51.022;7.082;2023-02-26T18:56:36;2.30;1.00
48328;DHT22;34136;51.022;7.082;2023-02-26T18:59:22;2.20;1.00
48328;DHT22;34136;51.022;7.082;2023-02-26T19:02:11;2.30;1.00
48328;DHT22;34136;51.022;7.082;2023-02-26T19:04:58;2.20;1.00
48328;DHT22;34136;51.022;7.082;2023-02-26T19:07:45;2.30;1.00
48328;DHT22;34136;51.022;7.082;2023-02-26T19:10:31;2.20;1.00
48328;DHT22;34136;51.022;7.082;2023-02-26T19:13:18;2.10;1.00
48328;DHT22;34136;51.022;7.082;2023-02-26T19:16:04;2.10;1.00
48328;DHT22;34136;51.022;7.082;2023-02-26T19:18:51;2.00;1.00
48328;DHT22;34136;51.022;7.082;2023-02-26T19:21:37;1.90;1.00
48328;DHT22;34136;51.022;7.082;2023-02-26T19:24:24;1.80;1.00
48328;DHT22;34136;51.022;7.082;2023-02-26T19:27:12;1.70;1.00
48328;DHT22;34136;51.022;7.082;2023-02-26T19:29:59;1.70;1.00
48328;DHT22;34136;51.022;7.082;2023-02-26T19:32:45;1.70;1.00
48328;DHT22;34136;51.022;7.082;2023-02-26T19:35:31;1.60;1.00
48328;DHT22;34136;51.022;7.082;2023-02-26T19:38:18;1.50;1.00
48328;DHT22;34136;51.022;7.082;2023-02-26T19:41:04;1.60;1.00
48328;DHT22;34136;51.022;7.082;2023-02-26T19:43:51;1.60;1.00
48328;DHT22;34136;51.022;7.082;2023-02-26T19:46:37;1.60;1.00
48328;DHT22;34136;51.022;7.082;2023-02-26T19:49:24;1.50;1.00
48328;DHT22;34136;51.022;7.082;2023-02-26T19:52:10;1.50;1.00
48328;DHT22;34136;51.022;7.082;2023-02-26T19:54:57;1.50;1.00
48328;DHT22;34136;51.022;7.082;2023-02-26T19:57:43;1.50;1.00
48328;DHT22;34136;51.022;7.082;2023-02-26T20:00:29;1.40;1.00
48328;DHT22;34136;51.022;7.082;2023-02-26T20:03:15;1.40;1.00
48328;DHT22;34136;51.022;7.082;2023-02-26T20:06:01;1.30;1.00
48328;DHT22;34136;51.022;7.082;2023-02-26T20:08:48;1.30;1.00
48328;DHT22;34136;51.022;7.082;2023-02-26T20:11:34;1.30;1.00
48328;DHT22;34136;51.022;7.082;2023-02-26T20:14:21;1.20;1.00
48328;DHT22;34136;51.022;7.082;2023-02-26T20:17:07;1.20;1.00
48328;DHT22;34136;51.022;7.082;2023-02-26T20:19:54;1.10;1.00
48328;DHT22;34136;51.022;7.082;2023-02-26T20:22:40;1.20;1.00
48328;DHT22;34136;51.022;7.082;2023-02-26T20:25:27;1.10;1.00
48328;DHT22;34136;51.022;7.082;2023-02-26T20:28:13;1.10;1.00
48328;DHT22;34136;51.022;7.082;2023-02-26T20:31:00;1.10;1.00
48328;DHT22;34136;51.022;7.082;2023-02-26T20:33:46;1.10;1.00
48328;DHT22;34136;51.022;7.082;2023-02-26T20:36:33;1.10;1.00
48328;DHT22;34136;51.022;7.082;2023-02-26T20:39:19;1.00;1.00
48328;DHT22;34136;51.022;7.082;2023-02-26T20:42:05;0.90;1.00
48328;DHT22;34136;51.022;7.082;2023-02-26T20:44:51;0.90;1.00
48328;DHT22;34136;51.022;7.082;2023-02-26T20:47:37;0.90;1.00
48328;DHT22;34136;51.022;7.082;2023-02-26T20:50:24;0.80;1.00
48328;DHT22;34136;51.022;7.082;2023-02-26T20:53:10;0.80;1.00
48328;DHT22;34136;51.022;7.082;2023-02-26T20:55:57;0.70;1.00
48328;DHT22;34136;51.022;7.082;2023-02-26T20:58:43;0.70;1.00
48328;DHT22;34136;51.022;7.082;2023-02-26T21:01:29;0.70;1.00
48328;DHT22;34136;51.022;7.082;2023-02-26T21:04:16;0.60;1.00
48328;DHT22;34136;51.022;7.082;2023-02-26T21:07:03;0.60;1.00
48328;DHT22;34136;51.022;7.082;2023-02-26T21:09:50;0.60;1.00
48328;DHT22;34136;51.022;7.082;2023-02-26T21:12:36;0.50;1.00
48328;DHT22;34136;51.022;7.082;2023-02-26T21:15:22;0.40;1.00
48328;DHT22;34136;51.022;7.082;2023-02-26T21:18:08;0.40;1.00
48328;DHT22;34136;51.022;7.082;2023-02-26T21:20:54;0.40;1.00
48328;DHT22;34136;51.022;7.082;2023-02-26T21:23:40;0.30;1.00
48328;DHT22;34136;51.022;7.082;2023-02-26T21:26:27;0.30;1.00
48328;DHT22;34136;51.022;7.082;2023-02-26T21:29:13;0.20;1.00
48328;DHT22;34136;51.022;7.082;2023-02-26T21:31:58;0.10;1.00
48328;DHT22;34136;51.022;7.082;2023-02-26T21:34:44;0.10;1.00
48328;DHT22;34136;51.022;7.082;2023-02-26T21:37:30;-0.10;1.00
48328;DHT22;34136;51.022;7.082;2023-02-26T21:40:16;0.00;1.00
48328;DHT22;34136;51.022;7.082;2023-02-26T21:43:02;-0.10;1.00